CheckWX is a tool to help pilots better visualize weather data.  It is not intended as a substitute for an official pre-flight weather briefing.

23:02:10 UTC

KHRO METAR
Boone County Airport
Harrison, Arkansas, USA
Current

9 mins ago

KHRO 242253Z AUTO 25009KT 10SM OVC014 09/06 A2961 RMK AO2 SLP025 T00890056 $
Observed
Feb-24 @ 22:53 UTC
Wind
  • 250° at 9 KTS
Visibility
10 SM
Flight Rules
MVFR
Cloud Levels
  • Overcast at 1,400' AGL
Temperature
C / 48°F
Dewpoint
C / 43°F
Humidity
82%
Altimeter
29.61" Hg
Pressure
1002.72 hPa
Previous

1 hour ago

KHRO 242153Z AUTO 23007KT 10SM BKN017 OVC022 09/06 A2958 RMK AO2 SLP017 T00940056 $
Observed
Feb-24 @ 21:53 UTC
Wind
  • 230° at 7 KTS
Visibility
10 SM
Flight Rules
MVFR
Cloud Levels
  • Broken at 1,700' AGL
  • Overcast at 2,200' AGL
Temperature
C / 48°F
Dewpoint
C / 43°F
Humidity
82%
Altimeter
29.58" Hg
Pressure
1001.72 hPa
Previous

2 hours ago

KHRO 242112Z AUTO 24008KT 10SM OVC021 10/05 A2957 RMK AO2 T01000050 $
Observed
Feb-24 @ 21:12 UTC
Wind
  • 240° at 8 KTS
Visibility
10 SM
Flight Rules
MVFR
Cloud Levels
  • Overcast at 2,100' AGL
Temperature
10°C / 50°F
Dewpoint
C / 41°F
Humidity
71%
Altimeter
29.57" Hg
Pressure
1001.32 hPa